Louisville, NE

6:59 PM CDT on May 25, 2015 (GMT -0500)
Offutt Air Force Base | | Change Station
CLOSE
Current Station
Airport
Location: Omaha Offutt,
Elevation: 1047 ft
Nearby Weather Stations
Active Advisory: Severe Thunderstorm Watch

Elev 1047 ft 41.12 °N, 95.91 °W | Updated 1 hour ago

Mostly Cloudy
Mostly Cloudy
80 °F
Feels Like 80 °F
N
13
Wind Variable Wind from SSE

Today
High -- | Low -- °F
--% Chance of Precip.
Yesterday
High -- | Low -- °F
Precip. -- in
5:58 AM 8:44 PM
First Quarter, 53% visible
Pressure 29.73 in
Visibility 10.0 miles
Clouds Clear
Dew Point 62 °F
Humidity 54%
Rainfall 0.00 in
Snow Depth Not available.
UV 3 out of 12
Pollen 2.00 out of 12
Air Quality Not available.
Flu Activity No Activity
METAR KOFF 252258Z AUTO 16011KT 10SM CLR 26/17 A2973 RMK AO2 SLP065 T02640165 $

More Conditions Fewer Conditions

Pressure 29.73 in
Visibility 10.0 miles
Clouds Clear
Dew Point 62 °F
Humidity 54%
Rainfall 0.00 in
Snow Depth Not available.
UV 3 out of 12
Pollen 2.00 out of 12
Air Quality Not available.
Flu Activity No Activity
METAR KOFF 252258Z AUTO 16011KT 10SM CLR 26/17 A2973 RMK AO2 SLP065 T02640165 $

More Conditions Fewer Conditions

10-Day Weather Forecast

Almanac

Astronomy

May. 25, 2015 Rise Set
Actual Time
Civil Twilight
Nautical Twilight
Astronomical Twilight
Moon
Length of Visible Light
Length of Day
Tomorrow will be .
, % of the Moon is Illuminated

Today's Extremes

State Highs State Lows

Community

WunderPhotos

Upload Photos

1,824,173 photos uploaded!

WunderBlogs® & News

Nearby

Air Quality

  Air Quality AQ Index Pollutant
Not available.

Snow Depth

Station Depth Elevation

Earthquake Activity

City Distance Mag. Time & Date
Minimum magnitude displayed is 2.5.

Coastal Water Temperatures

Place Temperature

Stations

Nearby Weather Stations

Station Location Temp. Windchill Dew Point Humidity Wind Precip. Elev Updated Type
                   
Severe Thunderstorm Watch
Statement as of 6:43 PM CDT on May 25, 2015

Severe Thunderstorm Watch 214 remains in effect until 100 am CDT

NE
. Nebraska counties included are

Cass Douglas gage
Jefferson Johnson Nemaha
Otoe Pawnee Richardson
Sarpy Washington